sensor_id;sensor_type;location;lat;lon;timestamp;pressure;altitude;pressure_sealevel;temperature;humidity
62849;BME280;48941;49.516;8.286;2023-04-30T00:01:02;100813.25;;;12.13;83.11
62849;BME280;48941;49.516;8.286;2023-04-30T00:03:30;100804.50;;;12.11;83.33
62849;BME280;48941;49.516;8.286;2023-04-30T00:05:58;100812.78;;;12.08;83.35
62849;BME280;48941;49.516;8.286;2023-04-30T00:08:26;100813.75;;;12.07;83.61
62849;BME280;48941;49.516;8.286;2023-04-30T00:10:56;100817.41;;;12.06;83.85
62849;BME280;48941;49.516;8.286;2023-04-30T00:13:24;100826.25;;;12.07;83.76
62849;BME280;48941;49.516;8.286;2023-04-30T00:15:52;100823.69;;;12.05;83.88
62849;BME280;48941;49.516;8.286;2023-04-30T00:18:20;100836.09;;;12.06;84.14
62849;BME280;48941;49.516;8.286;2023-04-30T00:20:47;100823.81;;;12.04;83.89
62849;BME280;48941;49.516;8.286;2023-04-30T00:23:17;100828.31;;;12.03;84.26
62849;BME280;48941;49.516;8.286;2023-04-30T00:25:45;100831.09;;;12.02;84.56
62849;BME280;48941;49.516;8.286;2023-04-30T00:28:14;100834.50;;;12.04;84.41
62849;BME280;48941;49.516;8.286;2023-04-30T00:30:42;100822.97;;;12.03;84.51
62849;BME280;48941;49.516;8.286;2023-04-30T00:33:09;100834.75;;;12.01;84.07
62849;BME280;48941;49.516;8.286;2023-04-30T00:35:37;100831.22;;;12.00;84.32
62849;BME280;48941;49.516;8.286;2023-04-30T00:38:05;100830.25;;;12.01;84.23
62849;BME280;48941;49.516;8.286;2023-04-30T00:40:33;100825.03;;;12.00;84.18
62849;BME280;48941;49.516;8.286;2023-04-30T00:43:01;100825.28;;;11.97;84.00
62849;BME280;48941;49.516;8.286;2023-04-30T00:45:30;100828.53;;;12.00;84.18
62849;BME280;48941;49.516;8.286;2023-04-30T00:47:58;100826.00;;;11.99;84.39
62849;BME280;48941;49.516;8.286;2023-04-30T00:50:27;100824.19;;;11.99;84.24
62849;BME280;48941;49.516;8.286;2023-04-30T00:52:55;100824.19;;;11.99;84.11
62849;BME280;48941;49.516;8.286;2023-04-30T00:55:25;100820.78;;;11.97;84.19
62849;BME280;48941;49.516;8.286;2023-04-30T00:57:53;100821.16;;;11.92;84.84
62849;BME280;48941;49.516;8.286;2023-04-30T01:00:21;100822.72;;;11.95;84.63
62849;BME280;48941;49.516;8.286;2023-04-30T01:02:50;100825.41;;;11.95;85.10
62849;BME280;48941;49.516;8.286;2023-04-30T01:05:19;100825.50;;;11.93;84.98
62849;BME280;48941;49.516;8.286;2023-04-30T01:07:48;100825.78;;;11.90;84.94
62849;BME280;48941;49.516;8.286;2023-04-30T01:10:17;100824.06;;;11.89;85.01
62849;BME280;48941;49.516;8.286;2023-04-30T01:12:51;100824.06;;;11.89;85.17
62849;BME280;48941;49.516;8.286;2023-04-30T01:15:26;100823.31;;;11.87;84.79
62849;BME280;48941;49.516;8.286;2023-04-30T01:18:03;100819.06;;;11.85;85.25
62849;BME280;48941;49.516;8.286;2023-04-30T01:20:33;100817.22;;;11.85;85.39
62849;BME280;48941;49.516;8.286;2023-04-30T01:23:10;100819.91;;;11.85;85.09
62849;BME280;48941;49.516;8.286;2023-04-30T01:25:52;100819.28;;;11.82;85.05
62849;BME280;48941;49.516;8.286;2023-04-30T01:28:22;100824.75;;;11.80;85.60
62849;BME280;48941;49.516;8.286;2023-04-30T01:30:51;100824.00;;;11.78;85.37
62849;BME280;48941;49.516;8.286;2023-04-30T01:33:19;100824.00;;;11.78;85.48
62849;BME280;48941;49.516;8.286;2023-04-30T01:36:09;100816.88;;;11.79;85.62
62849;BME280;48941;49.516;8.286;2023-04-30T01:41:39;100826.81;;;11.76;85.46
62849;BME280;48941;49.516;8.286;2023-04-30T01:44:28;100817.94;;;11.76;85.36
62849;BME280;48941;49.516;8.286;2023-04-30T01:47:06;100826.69;;;11.78;84.90
62849;BME280;48941;49.516;8.286;2023-04-30T01:49:42;100824.00;;;11.78;84.94
62849;BME280;48941;49.516;8.286;2023-04-30T01:52:22;100826.69;;;11.78;84.45
62849;BME280;48941;49.516;8.286;2023-04-30T01:54:54;100826.81;;;11.76;84.29
62849;BME280;48941;49.516;8.286;2023-04-30T01:57:30;100825.00;;;11.77;84.67
62849;BME280;48941;49.516;8.286;2023-04-30T02:00:00;100823.06;;;11.79;84.83
62849;BME280;48941;49.516;8.286;2023-04-30T02:02:28;100828.50;;;11.77;84.27
62849;BME280;48941;49.516;8.286;2023-04-30T02:04:56;100828.50;;;11.77;84.35
62849;BME280;48941;49.516;8.286;2023-04-30T02:07:35;100820.63;;;11.76;84.19
62849;BME280;48941;49.516;8.286;2023-04-30T02:10:05;100822.44;;;11.75;83.83
62849;BME280;48941;49.516;8.286;2023-04-30T02:12:33;100826.94;;;11.75;83.73
62849;BME280;48941;49.516;8.286;2023-04-30T02:15:03;100830.56;;;11.74;83.96
62849;BME280;48941;49.516;8.286;2023-04-30T02:17:31;100829.72;;;11.73;83.98
62849;BME280;48941;49.516;8.286;2023-04-30T02:19:59;100831.66;;;11.71;83.86
62849;BME280;48941;49.516;8.286;2023-04-30T02:22:27;100828.88;;;11.73;84.00
62849;BME280;48941;49.516;8.286;2023-04-30T02:24:55;100830.69;;;11.72;83.92
62849;BME280;48941;49.516;8.286;2023-04-30T02:27:24;100825.38;;;11.72;84.05
62849;BME280;48941;49.516;8.286;2023-04-30T02:29:52;100825.38;;;11.72;83.66
62849;BME280;48941;49.516;8.286;2023-04-30T02:32:22;100820.16;;;11.71;83.79
62849;BME280;48941;49.516;8.286;2023-04-30T02:34:50;100822.09;;;11.69;83.44
62849;BME280;48941;49.516;8.286;2023-04-30T02:37:18;100824.75;;;11.69;83.58
62849;BME280;48941;49.516;8.286;2023-04-30T02:39:46;100822.91;;;11.69;83.67
62849;BME280;48941;49.516;8.286;2023-04-30T02:42:14;100818.69;;;11.67;83.85
62849;BME280;48941;49.516;8.286;2023-04-30T02:44:41;100823.19;;;11.66;83.62
62849;BME280;48941;49.516;8.286;2023-04-30T02:47:10;100828.63;;;11.65;84.06
62849;BME280;48941;49.516;8.286;2023-04-30T02:49:39;100827.78;;;11.64;83.59
62849;BME280;48941;49.516;8.286;2023-04-30T02:52:06;100826.19;;;11.62;83.52
62849;BME280;48941;49.516;8.286;2023-04-30T02:54:35;100831.41;;;11.63;83.60
62849;BME280;48941;49.516;8.286;2023-04-30T02:57:03;100842.19;;;11.62;83.98
62849;BME280;48941;49.516;8.286;2023-04-30T02:59:31;100835.16;;;11.61;83.60
62849;BME280;48941;49.516;8.286;2023-04-30T03:01:58;100836.00;;;11.61;84.01
62849;BME280;48941;49.516;8.286;2023-04-30T03:04:26;100834.28;;;11.60;84.04
62849;BME280;48941;49.516;8.286;2023-04-30T03:06:55;100827.38;;;11.57;83.93
62849;BME280;48941;49.516;8.286;2023-04-30T03:09:23;100832.72;;;11.57;83.69
62849;BME280;48941;49.516;8.286;2023-04-30T03:11:51;100832.97;;;11.54;84.14
62849;BME280;48941;49.516;8.286;2023-04-30T03:14:19;100834.78;;;11.54;83.67
62849;BME280;48941;49.516;8.286;2023-04-30T03:16:46;100835.75;;;11.53;83.92
62849;BME280;48941;49.516;8.286;2023-04-30T03:19:14;100828.84;;;11.50;83.85
62849;BME280;48941;49.516;8.286;2023-04-30T03:21:43;100822.53;;;11.51;84.07
62849;BME280;48941;49.516;8.286;2023-04-30T03:24:12;100823.38;;;11.52;84.30
62849;BME280;48941;49.516;8.286;2023-04-30T03:26:40;100813.78;;;11.49;84.08
62849;BME280;48941;49.516;8.286;2023-04-30T03:29:07;100819.13;;;11.49;83.89
62849;BME280;48941;49.516;8.286;2023-04-30T03:31:35;100813.78;;;11.49;83.82
62849;BME280;48941;49.516;8.286;2023-04-30T03:34:03;100819.13;;;11.49;84.27
62849;BME280;48941;49.516;8.286;2023-04-30T03:36:31;100818.28;;;11.49;84.22
62849;BME280;48941;49.516;8.286;2023-04-30T03:39:00;100823.75;;;11.47;84.15
62849;BME280;48941;49.516;8.286;2023-04-30T03:41:29;100826.41;;;11.47;84.28
62849;BME280;48941;49.516;8.286;2023-04-30T03:43:57;100816.72;;;11.46;84.50
62849;BME280;48941;49.516;8.286;2023-04-30T03:46:25;100822.06;;;11.46;84.50
62849;BME280;48941;49.516;8.286;2023-04-30T03:48:53;100810.75;;;11.43;84.51
62849;BME280;48941;49.516;8.286;2023-04-30T03:51:20;100812.69;;;11.41;84.71
62849;BME280;48941;49.516;8.286;2023-04-30T03:53:48;100814.75;;;11.37;84.76
62849;BME280;48941;49.516;8.286;2023-04-30T03:56:16;100809.53;;;11.35;85.29
62849;BME280;48941;49.516;8.286;2023-04-30T03:58:45;100808.69;;;11.35;85.41
62849;BME280;48941;49.516;8.286;2023-04-30T04:01:13;100813.28;;;11.33;85.57
62849;BME280;48941;49.516;8.286;2023-04-30T04:03:41;100811.47;;;11.33;85.19
62849;BME280;48941;49.516;8.286;2023-04-30T04:06:09;100817.88;;;11.31;85.14
62849;BME280;48941;49.516;8.286;2023-04-30T04:08:36;100820.56;;;11.31;85.67
62849;BME280;48941;49.516;8.286;2023-04-30T04:11:04;100826.84;;;11.30;85.35
62849;BME280;48941;49.516;8.286;2023-04-30T04:13:32;100821.75;;;11.27;85.75
62849;BME280;48941;49.516;8.286;2023-04-30T04:16:01;100817.38;;;11.26;86.26
62849;BME280;48941;49.516;8.286;2023-04-30T04:18:29;100821.88;;;11.25;85.87
62849;BME280;48941;49.516;8.286;2023-04-30T04:20:57;100830.59;;;11.27;86.36
62849;BME280;48941;49.516;8.286;2023-04-30T04:23:26;100829.88;;;11.25;86.17
62849;BME280;48941;49.516;8.286;2023-04-30T04:25:54;100829.88;;;11.25;86.31
62849;BME280;48941;49.516;8.286;2023-04-30T04:28:22;100831.69;;;11.25;86.67
62849;BME280;48941;49.516;8.286;2023-04-30T04:30:51;100832.75;;;11.22;86.78
62849;BME280;48941;49.516;8.286;2023-04-30T04:33:20;100832.63;;;11.24;86.70
62849;BME280;48941;49.516;8.286;2023-04-30T04:35:48;100837.03;;;11.25;86.43
62849;BME280;48941;49.516;8.286;2023-04-30T04:38:16;100840.53;;;11.25;87.05
62849;BME280;48941;49.516;8.286;2023-04-30T04:40:50;100837.88;;;11.25;86.65
62849;BME280;48941;49.516;8.286;2023-04-30T04:43:18;100836.91;;;11.26;86.93
62849;BME280;48941;49.516;8.286;2023-04-30T04:45:46;100831.59;;;11.26;86.71
62849;BME280;48941;49.516;8.286;2023-04-30T04:48:14;100837.88;;;11.25;86.99
62849;BME280;48941;49.516;8.286;2023-04-30T04:50:43;100837.88;;;11.25;86.86
62849;BME280;48941;49.516;8.286;2023-04-30T04:53:11;100832.53;;;11.25;87.00
62849;BME280;48941;49.516;8.286;2023-04-30T04:55:39;100839.59;;;11.26;86.76
62849;BME280;48941;49.516;8.286;2023-04-30T04:58:07;100832.53;;;11.25;86.51
62849;BME280;48941;49.516;8.286;2023-04-30T05:00:35;100838.72;;;11.26;86.49
62849;BME280;48941;49.516;8.286;2023-04-30T05:03:03;100836.91;;;11.26;86.98
62849;BME280;48941;49.516;8.286;2023-04-30T05:05:31;100840.41;;;11.27;86.67
62849;BME280;48941;49.516;8.286;2023-04-30T05:08:01;100848.31;;;11.28;86.70
62849;BME280;48941;49.516;8.286;2023-04-30T05:10:28;100841.78;;;11.32;86.40
62849;BME280;48941;49.516;8.286;2023-04-30T05:12:56;100837.19;;;11.34;86.50
62849;BME280;48941;49.516;8.286;2023-04-30T05:15:24;100840.44;;;11.38;86.87
62849;BME280;48941;49.516;8.286;2023-04-30T05:17:52;100836.47;;;11.44;87.08
62849;BME280;48941;49.516;8.286;2023-04-30T05:20:20;100845.19;;;11.46;87.77
62849;BME280;48941;49.516;8.286;2023-04-30T05:22:48;100841.56;;;11.47;88.28
62849;BME280;48941;49.516;8.286;2023-04-30T05:25:17;100838.78;;;11.48;88.13
62849;BME280;48941;49.516;8.286;2023-04-30T05:27:45;100852.84;;;11.50;88.49
62849;BME280;48941;49.516;8.286;2023-04-30T05:30:13;100846.53;;;11.51;88.36
62849;BME280;48941;49.516;8.286;2023-04-30T05:32:42;100845.69;;;11.51;88.89
62849;BME280;48941;49.516;8.286;2023-04-30T05:35:16;100835.97;;;11.50;88.86
62849;BME280;48941;49.516;8.286;2023-04-30T05:37:43;100841.09;;;11.53;88.50
62849;BME280;48941;49.516;8.286;2023-04-30T05:40:12;100848.97;;;11.54;88.07
62849;BME280;48941;49.516;8.286;2023-04-30T05:42:41;100850.56;;;11.57;87.46
62849;BME280;48941;49.516;8.286;2023-04-30T05:45:10;100848.50;;;11.61;86.84
62849;BME280;48941;49.516;8.286;2023-04-30T05:47:40;100851.19;;;11.61;86.81
62849;BME280;48941;49.516;8.286;2023-04-30T05:50:09;100853.38;;;11.67;86.44
62849;BME280;48941;49.516;8.286;2023-04-30T05:52:37;100851.44;;;11.69;85.62
62849;BME280;48941;49.516;8.286;2023-04-30T05:55:06;100849.38;;;11.72;85.85
62849;BME280;48941;49.516;8.286;2023-04-30T05:57:35;100847.44;;;11.74;85.18
62849;BME280;48941;49.516;8.286;2023-04-30T06:00:05;100848.91;;;11.79;84.64
62849;BME280;48941;49.516;8.286;2023-04-30T06:02:33;100850.34;;;11.83;84.59
62849;BME280;48941;49.516;8.286;2023-04-30T06:05:01;100859.81;;;11.87;84.46
62849;BME280;48941;49.516;8.286;2023-04-30T06:07:29;100847.84;;;11.92;84.53
62849;BME280;48941;49.516;8.286;2023-04-30T06:09:57;100851.97;;;11.97;83.91
62849;BME280;48941;49.516;8.286;2023-04-30T06:12:25;100850.88;;;11.99;83.59
62849;BME280;48941;49.516;8.286;2023-04-30T06:14:53;100851.38;;;12.04;83.82
62849;BME280;48941;49.516;8.286;2023-04-30T06:17:22;100852.84;;;12.08;82.93
62849;BME280;48941;49.516;8.286;2023-04-30T06:19:50;100850.75;;;12.12;83.06
62849;BME280;48941;49.516;8.286;2023-04-30T06:22:18;100850.63;;;12.13;82.37
62849;BME280;48941;49.516;8.286;2023-04-30T06:24:46;100850.53;;;12.15;82.18
62849;BME280;48941;49.516;8.286;2023-04-30T06:27:14;100845.69;;;12.20;82.31
62849;BME280;48941;49.516;8.286;2023-04-30T06:29:42;100851.47;;;12.25;82.30
62849;BME280;48941;49.516;8.286;2023-04-30T06:32:10;100851.75;;;12.22;81.95
62849;BME280;48941;49.516;8.286;2023-04-30T06:34:39;100846.41;;;12.22;81.67
62849;BME280;48941;49.516;8.286;2023-04-30T06:37:06;100855.00;;;12.26;81.57
62849;BME280;48941;49.516;8.286;2023-04-30T06:39:34;100855.50;;;12.31;81.88
62849;BME280;48941;49.516;8.286;2023-04-30T06:42:02;100854.38;;;12.33;81.94
62849;BME280;48941;49.516;8.286;2023-04-30T06:44:30;100857.91;;;12.34;81.55
62849;BME280;48941;49.516;8.286;2023-04-30T06:46:58;100868.13;;;12.40;81.15
62849;BME280;48941;49.516;8.286;2023-04-30T06:49:26;100860.56;;;12.45;81.49
62849;BME280;48941;49.516;8.286;2023-04-30T06:51:55;100866.50;;;12.49;81.07
62849;BME280;48941;49.516;8.286;2023-04-30T06:54:24;100863.22;;;12.57;80.94
62849;BME280;48941;49.516;8.286;2023-04-30T06:56:52;100867.22;;;12.62;81.09
62849;BME280;48941;49.516;8.286;2023-04-30T06:59:20;100868.41;;;12.69;80.14
62849;BME280;48941;49.516;8.286;2023-04-30T07:01:48;100871.94;;;12.70;79.81
62849;BME280;48941;49.516;8.286;2023-04-30T07:04:16;100862.44;;;12.77;79.69
62849;BME280;48941;49.516;8.286;2023-04-30T07:06:44;100867.16;;;12.85;79.73
62849;BME280;48941;49.516;8.286;2023-04-30T07:09:14;100865.66;;;12.92;80.08
62849;BME280;48941;49.516;8.286;2023-04-30T07:11:42;100864.47;;;12.96;79.93
62849;BME280;48941;49.516;8.286;2023-04-30T07:14:10;100865.63;;;13.03;79.80
62849;BME280;48941;49.516;8.286;2023-04-30T07:16:38;100871.47;;;13.08;79.14
62849;BME280;48941;49.516;8.286;2023-04-30T07:19:06;100867.44;;;13.14;78.99
62849;BME280;48941;49.516;8.286;2023-04-30T07:21:34;100862.53;;;13.19;78.48
62849;BME280;48941;49.516;8.286;2023-04-30T07:24:02;100870.56;;;13.19;77.91
62849;BME280;48941;49.516;8.286;2023-04-30T07:26:32;100866.66;;;13.23;77.24
62849;BME280;48941;49.516;8.286;2023-04-30T07:29:00;100864.44;;;13.28;77.13
62849;BME280;48941;49.516;8.286;2023-04-30T07:31:28;100863.38;;;13.31;76.96
62849;BME280;48941;49.516;8.286;2023-04-30T07:33:56;100864.56;;;13.38;77.13
62849;BME280;48941;49.516;8.286;2023-04-30T07:36:24;100866.56;;;13.46;76.59
62849;BME280;48941;49.516;8.286;2023-04-30T07:38:53;100866.91;;;13.52;77.07
62849;BME280;48941;49.516;8.286;2023-04-30T07:41:22;100862.59;;;13.61;76.35
62849;BME280;48941;49.516;8.286;2023-04-30T07:43:52;100869.00;;;13.70;75.28
62849;BME280;48941;49.516;8.286;2023-04-30T07:46:20;100856.50;;;13.80;75.50
62849;BME280;48941;49.516;8.286;2023-04-30T07:48:48;100862.91;;;13.89;75.57
62849;BME280;48941;49.516;8.286;2023-04-30T07:51:16;100858.31;;;14.01;73.89
62849;BME280;48941;49.516;8.286;2023-04-30T07:53:44;100857.22;;;14.13;71.25
62849;BME280;48941;49.516;8.286;2023-04-30T07:56:12;100864.06;;;14.27;70.68
62849;BME280;48941;49.516;8.286;2023-04-30T07:58:40;100857.03;;;14.45;70.89
62849;BME280;48941;49.516;8.286;2023-04-30T08:01:10;100859.81;;;14.65;68.83
62849;BME280;48941;49.516;8.286;2023-04-30T08:03:38;100859.84;;;14.84;68.54
62849;BME280;48941;49.516;8.286;2023-04-30T08:06:06;100865.25;;;15.04;67.30
62849;BME280;48941;49.516;8.286;2023-04-30T08:08:34;100856.47;;;15.21;66.56
62849;BME280;48941;49.516;8.286;2023-04-30T08:11:02;100862.25;;;15.46;65.96
62849;BME280;48941;49.516;8.286;2023-04-30T08:13:30;100856.44;;;15.70;64.39
62849;BME280;48941;49.516;8.286;2023-04-30T08:15:58;100856.25;;;15.91;64.22
62849;BME280;48941;49.516;8.286;2023-04-30T08:18:28;100857.16;;;16.09;62.72
62849;BME280;48941;49.516;8.286;2023-04-30T08:20:56;100856.78;;;16.32;60.74
62849;BME280;48941;49.516;8.286;2023-04-30T08:23:24;100840.56;;;16.51;58.27
62849;BME280;48941;49.516;8.286;2023-04-30T08:25:52;100845.50;;;16.74;58.38
62849;BME280;48941;49.516;8.286;2023-04-30T08:28:20;100842.41;;;16.97;55.20
62849;BME280;48941;49.516;8.286;2023-04-30T08:30:48;100851.47;;;17.14;54.36
62849;BME280;48941;49.516;8.286;2023-04-30T08:33:16;100857.44;;;17.25;53.28
62849;BME280;48941;49.516;8.286;2023-04-30T08:35:45;100845.28;;;17.39;52.68
62849;BME280;48941;49.516;8.286;2023-04-30T08:38:13;100851.25;;;17.51;51.78
62849;BME280;48941;49.516;8.286;2023-04-30T08:40:48;100850.97;;;17.54;50.59
62849;BME280;48941;49.516;8.286;2023-04-30T08:43:19;100840.78;;;17.66;49.11
62849;BME280;48941;49.516;8.286;2023-04-30T08:45:50;100837.66;;;17.79;49.19
62849;BME280;48941;49.516;8.286;2023-04-30T08:48:20;100845.69;;;17.97;47.59
62849;BME280;48941;49.516;8.286;2023-04-30T08:50:51;100844.06;;;18.04;47.84
62849;BME280;48941;49.516;8.286;2023-04-30T08:53:20;100848.13;;;18.08;46.39
62849;BME280;48941;49.516;8.286;2023-04-30T08:55:48;100844.13;;;18.20;46.25
62849;BME280;48941;49.516;8.286;2023-04-30T08:58:16;100837.13;;;18.36;46.14
62849;BME280;48941;49.516;8.286;2023-04-30T09:00:44;100850.75;;;18.34;46.97
62849;BME280;48941;49.516;8.286;2023-04-30T09:03:15;100851.34;;;18.11;47.26
62849;BME280;48941;49.516;8.286;2023-04-30T09:05:43;100853.47;;;18.00;47.87
62849;BME280;48941;49.516;8.286;2023-04-30T09:08:17;100852.94;;;17.96;46.40
62849;BME280;48941;49.516;8.286;2023-04-30T09:10:46;100845.66;;;17.88;45.02
62849;BME280;48941;49.516;8.286;2023-04-30T09:13:13;100846.69;;;17.87;46.86
62849;BME280;48941;49.516;8.286;2023-04-30T09:15:42;100842.50;;;17.75;45.20
62849;BME280;48941;49.516;8.286;2023-04-30T09:18:12;100838.25;;;17.64;44.96
62849;BME280;48941;49.516;8.286;2023-04-30T09:20:56;100839.59;;;17.42;46.62
62849;BME280;48941;49.516;8.286;2023-04-30T09:23:25;100843.47;;;17.22;46.24
62849;BME280;48941;49.516;8.286;2023-04-30T09:25:54;100844.09;;;16.98;47.68
62849;BME280;48941;49.516;8.286;2023-04-30T09:28:22;100836.66;;;16.91;48.36
62849;BME280;48941;49.516;8.286;2023-04-30T09:30:54;100840.69;;;16.78;48.76
62849;BME280;48941;49.516;8.286;2023-04-30T09:33:22;100842.41;;;16.69;47.31
62849;BME280;48941;49.516;8.286;2023-04-30T09:35:50;100842.19;;;16.62;47.16
62849;BME280;48941;49.516;8.286;2023-04-30T09:38:26;100834.97;;;16.63;47.37
62849;BME280;48941;49.516;8.286;2023-04-30T09:40:57;100834.97;;;16.63;48.09
62849;BME280;48941;49.516;8.286;2023-04-30T09:43:25;100837.28;;;16.58;47.37
62849;BME280;48941;49.516;8.286;2023-04-30T09:45:53;100835.56;;;16.57;47.41
62849;BME280;48941;49.516;8.286;2023-04-30T09:48:21;100826.66;;;16.56;47.84
62849;BME280;48941;49.516;8.286;2023-04-30T09:50:50;100832.88;;;16.57;47.67
62849;BME280;48941;49.516;8.286;2023-04-30T09:53:18;100835.88;;;16.53;48.55
62849;BME280;48941;49.516;8.286;2023-04-30T09:55:49;100833.81;;;16.65;47.94
62849;BME280;48941;49.516;8.286;2023-04-30T09:58:18;100836.00;;;16.80;47.60
62849;BME280;48941;49.516;8.286;2023-04-30T10:00:46;100829.41;;;16.92;46.68
62849;BME280;48941;49.516;8.286;2023-04-30T10:03:15;100823.72;;;16.95;46.59
62849;BME280;48941;49.516;8.286;2023-04-30T10:05:44;100829.78;;;16.97;47.27
62849;BME280;48941;49.516;8.286;2023-04-30T10:08:18;100823.56;;;16.97;46.07
62849;BME280;48941;49.516;8.286;2023-04-30T10:10:57;100822.88;;;17.12;45.97
62849;BME280;48941;49.516;8.286;2023-04-30T10:13:28;100823.69;;;17.13;46.03
62849;BME280;48941;49.516;8.286;2023-04-30T10:16:00;100830.84;;;17.22;45.51
62849;BME280;48941;49.516;8.286;2023-04-30T10:18:34;100824.78;;;17.20;44.93
62849;BME280;48941;49.516;8.286;2023-04-30T10:21:06;100828.00;;;17.24;45.25
62849;BME280;48941;49.516;8.286;2023-04-30T10:23:37;100820.25;;;17.21;44.48
62849;BME280;48941;49.516;8.286;2023-04-30T10:26:09;100829.84;;;17.23;45.24
62849;BME280;48941;49.516;8.286;2023-04-30T10:28:38;100821.94;;;17.22;45.37
62849;BME280;48941;49.516;8.286;2023-04-30T10:31:07;100819.94;;;17.24;45.99
62849;BME280;48941;49.516;8.286;2023-04-30T10:33:43;100817.06;;;17.25;45.58
62849;BME280;48941;49.516;8.286;2023-04-30T10:36:22;100813.00;;;17.21;46.06
62849;BME280;48941;49.516;8.286;2023-04-30T10:38:51;100806.78;;;17.21;44.98
62849;BME280;48941;49.516;8.286;2023-04-30T10:41:20;100809.47;;;17.21;45.36
62849;BME280;48941;49.516;8.286;2023-04-30T10:43:48;100799.41;;;17.23;45.56
62849;BME280;48941;49.516;8.286;2023-04-30T10:46:23;100796.94;;;17.29;45.56
62849;BME280;48941;49.516;8.286;2023-04-30T10:48:52;100797.28;;;17.35;45.06
62849;BME280;48941;49.516;8.286;2023-04-30T10:51:20;100791.97;;;17.43;44.96
62849;BME280;48941;49.516;8.286;2023-04-30T10:53:50;100789.56;;;17.58;42.94
62849;BME280;48941;49.516;8.286;2023-04-30T10:56:32;100791.06;;;17.60;42.77
62849;BME280;48941;49.516;8.286;2023-04-30T10:59:00;100787.59;;;17.68;43.11
62849;BME280;48941;49.516;8.286;2023-04-30T11:01:29;100789.13;;;17.70;43.38
62849;BME280;48941;49.516;8.286;2023-04-30T11:04:04;100789.94;;;17.71;42.46
62849;BME280;48941;49.516;8.286;2023-04-30T11:06:48;100779.28;;;17.61;43.50
62849;BME280;48941;49.516;8.286;2023-04-30T11:09:34;100783.84;;;17.61;43.30
62849;BME280;48941;49.516;8.286;2023-04-30T11:12:09;100775.66;;;17.70;43.26
62849;BME280;48941;49.516;8.286;2023-04-30T11:14:40;100778.53;;;17.77;44.57
62849;BME280;48941;49.516;8.286;2023-04-30T11:17:09;100772.78;;;17.98;42.36
62849;BME280;48941;49.516;8.286;2023-04-30T11:19:47;100774.06;;;18.28;43.50
62849;BME280;48941;49.516;8.286;2023-04-30T11:22:17;100770.41;;;18.46;41.21
62849;BME280;48941;49.516;8.286;2023-04-30T11:24:49;100770.41;;;18.54;40.74
62849;BME280;48941;49.516;8.286;2023-04-30T11:27:24;100769.91;;;18.50;41.07
62849;BME280;48941;49.516;8.286;2023-04-30T11:29:53;100768.22;;;18.49;40.42
62849;BME280;48941;49.516;8.286;2023-04-30T11:32:23;100770.06;;;18.49;41.71
62849;BME280;48941;49.516;8.286;2023-04-30T11:34:51;100762.88;;;18.74;39.64
62849;BME280;48941;49.516;8.286;2023-04-30T11:37:22;100758.66;;;19.21;39.94
62849;BME280;48941;49.516;8.286;2023-04-30T11:39:51;100764.16;;;19.60;39.80
62849;BME280;48941;49.516;8.286;2023-04-30T11:42:20;100758.50;;;19.95;39.08
62849;BME280;48941;49.516;8.286;2023-04-30T11:44:48;100758.59;;;20.18;38.71
62849;BME280;48941;49.516;8.286;2023-04-30T11:47:16;100750.38;;;20.34;39.29
62849;BME280;48941;49.516;8.286;2023-04-30T11:49:44;100754.28;;;20.55;38.64
62849;BME280;48941;49.516;8.286;2023-04-30T11:52:12;100749.41;;;20.81;36.61
62849;BME280;48941;49.516;8.286;2023-04-30T11:54:40;100746.59;;;21.13;36.11
62849;BME280;48941;49.516;8.286;2023-04-30T11:57:08;100747.19;;;21.38;35.29
62849;BME280;48941;49.516;8.286;2023-04-30T11:59:40;100740.56;;;21.25;36.42
62849;BME280;48941;49.516;8.286;2023-04-30T12:02:13;100750.16;;;21.28;36.82
62849;BME280;48941;49.516;8.286;2023-04-30T12:04:42;100732.91;;;21.29;35.42
62849;BME280;48941;49.516;8.286;2023-04-30T12:07:10;100739.91;;;21.23;35.17
62849;BME280;48941;49.516;8.286;2023-04-30T12:09:51;100734.00;;;21.35;34.95
62849;BME280;48941;49.516;8.286;2023-04-30T12:12:26;100730.78;;;21.54;35.02
62849;BME280;48941;49.516;8.286;2023-04-30T12:14:55;100736.22;;;21.69;34.29
62849;BME280;48941;49.516;8.286;2023-04-30T12:17:30;100725.19;;;21.71;35.44
62849;BME280;48941;49.516;8.286;2023-04-30T12:19:59;100722.09;;;21.74;34.37
62849;BME280;48941;49.516;8.286;2023-04-30T12:22:27;100726.50;;;21.60;35.75
62849;BME280;48941;49.516;8.286;2023-04-30T12:24:57;100728.03;;;21.24;35.57
62849;BME280;48941;49.516;8.286;2023-04-30T12:27:25;100726.19;;;20.87;35.52
62849;BME280;48941;49.516;8.286;2023-04-30T12:30:01;100722.66;;;20.63;36.09
62849;BME280;48941;49.516;8.286;2023-04-30T12:32:29;100721.16;;;20.53;35.75
62849;BME280;48941;49.516;8.286;2023-04-30T12:34:57;100721.81;;;20.32;36.04
62849;BME280;48941;49.516;8.286;2023-04-30T12:37:27;100714.81;;;20.14;36.54
62849;BME280;48941;49.516;8.286;2023-04-30T12:39:55;100714.03;;;20.05;37.19
62849;BME280;48941;49.516;8.286;2023-04-30T12:42:23;100719.69;;;20.19;36.87
62849;BME280;48941;49.516;8.286;2023-04-30T12:44:51;100707.88;;;20.20;37.70
62849;BME280;48941;49.516;8.286;2023-04-30T12:47:23;100709.50;;;20.29;37.00
62849;BME280;48941;49.516;8.286;2023-04-30T12:49:51;100703.44;;;20.50;36.13
62849;BME280;48941;49.516;8.286;2023-04-30T12:52:22;100700.94;;;20.72;36.73
62849;BME280;48941;49.516;8.286;2023-04-30T12:54:51;100691.28;;;20.92;36.56
62849;BME280;48941;49.516;8.286;2023-04-30T12:57:19;100694.47;;;20.96;36.63
62849;BME280;48941;49.516;8.286;2023-04-30T12:59:58;100687.25;;;20.88;36.13
62849;BME280;48941;49.516;8.286;2023-04-30T13:02:28;100691.44;;;20.91;35.78
62849;BME280;48941;49.516;8.286;2023-04-30T13:04:58;100689.06;;;20.73;36.83